Time;durP1;ratioP1;P1;durP2;ratioP2;P2;SDS_P1;SDS_P2;PMS_P1;PMS_P2;Temp;Humidity;BMP_temperature;BMP_pressure;BME280_temperature;BME280_humidity;BME280_pressure;Samples;Min_cycle;Max_cycle;Signal;HPM_P1;HPM_P2
2022/10/03 04:03:00;;;;;;;20.43;16.20;;;12.90;99.90;;;;;;4976754;23;20490;-62
2022/10/03 04:05:38;;;;;;;18.97;17.07;;;12.90;99.90;;;;;;4976521;28;20438;-63
2022/10/03 04:08:20;;;;;;;18.47;16.47;;;12.90;99.90;;;;;;4976685;28;20445;-63
2022/10/03 04:10:56;;;;;;;22.33;17.10;;;12.90;99.90;;;;;;4976321;28;20482;-62
2022/10/03 04:13:40;;;;;;;21.43;17.67;;;12.90;99.90;;;;;;4976313;28;20504;-63
2022/10/03 04:19:28;;;;;;;20.20;17.03;;;12.90;99.90;;;;;;4954208;28;20485;-63
2022/10/03 04:22:14;;;;;;;23.60;17.77;;;12.90;99.90;;;;;;4976071;28;20471;-63
2022/10/03 04:24:57;;;;;;;22.20;17.80;;;12.90;99.90;;;;;;4976229;28;20442;-63
2022/10/03 04:27:46;;;;;;;23.07;18.33;;;12.90;99.90;;;;;;4975901;28;20435;-63
2022/10/03 04:30:16;;;;;;;21.97;18.37;;;12.90;99.90;;;;;;4976539;28;20459;-62
2022/10/03 04:33:17;;;;;;;22.47;18.80;;;12.90;99.90;;;;;;4976061;28;20895;-63
2022/10/03 04:36:09;;;;;;;23.57;18.57;;;12.80;99.90;;;;;;4975910;28;20860;-63
2022/10/03 04:38:49;;;;;;;25.20;19.50;;;12.80;99.90;;;;;;4975858;28;20777;-63
2022/10/03 04:41:27;;;;;;;22.83;18.13;;;12.70;99.90;;;;;;4975695;28;20533;-63
2022/10/03 04:44:02;;;;;;;23.90;19.93;;;12.70;99.90;;;;;;4975976;28;20526;-63
2022/10/03 04:46:37;;;;;;;28.97;21.30;;;12.70;99.90;;;;;;4975498;28;20853;-63
2022/10/03 04:49:12;;;;;;;28.93;20.27;;;12.70;99.90;;;;;;4975402;28;20793;-63
2022/10/03 04:51:53;;;;;;;27.63;20.00;;;12.70;99.90;;;;;;4975615;28;20478;-63
2022/10/03 04:54:29;;;;;;;25.70;20.20;;;12.70;99.90;;;;;;4974933;28;20438;-63
2022/10/03 04:57:02;;;;;;;31.33;21.27;;;12.70;99.90;;;;;;4975525;28;20443;-63
2022/10/03 04:59:51;;;;;;;23.80;21.20;;;12.70;99.90;;;;;;4975561;28;20443;-63
2022/10/03 05:02:42;;;;;;;28.83;22.07;;;12.70;99.90;;;;;;4974950;28;21044;-63
2022/10/03 05:05:25;;;;;;;33.60;23.27;;;12.70;99.90;;;;;;4975573;28;20449;-63
2022/10/03 05:08:04;;;;;;;30.93;22.80;;;12.70;99.90;;;;;;4975421;28;20443;-63
2022/10/03 05:10:48;;;;;;;26.50;22.10;;;12.60;99.90;;;;;;4975247;28;20493;-63
2022/10/03 05:13:22;;;;;;;30.00;22.27;;;12.60;99.90;;;;;;4975291;28;20493;-63
2022/10/03 05:15:58;;;;;;;29.60;21.70;;;12.70;99.90;;;;;;4975524;28;20454;-63
2022/10/03 05:18:37;;;;;;;27.30;22.07;;;12.70;99.90;;;;;;4975593;28;20446;-64
2022/10/03 05:21:13;;;;;;;27.90;23.30;;;12.70;99.90;;;;;;4975187;28;20481;-63
2022/10/03 05:23:51;;;;;;;31.17;22.00;;;12.70;99.90;;;;;;4975295;28;20442;-63
2022/10/03 05:26:24;;;;;;;28.23;22.67;;;12.70;99.90;;;;;;4975418;28;20521;-63
2022/10/03 05:28:58;;;;;;;28.37;22.70;;;12.60;99.90;;;;;;4975123;28;20450;-63
2022/10/03 05:31:43;;;;;;;28.30;22.37;;;12.60;99.90;;;;;;4974671;28;20480;-64
2022/10/03 05:34:21;;;;;;;29.37;23.10;;;12.60;99.90;;;;;;4975133;28;20533;-63
2022/10/03 05:37:08;;;;;;;30.97;22.77;;;12.60;99.90;;;;;;4974798;28;20522;-64
2022/10/03 05:39:45;;;;;;;28.97;22.93;;;12.60;99.90;;;;;;4974704;28;20489;-63
2022/10/03 05:42:31;;;;;;;29.10;23.90;;;12.50;99.90;;;;;;4975027;28;20893;-63
2022/10/03 05:45:04;;;;;;;29.40;22.00;;;12.50;99.90;;;;;;4974652;28;20973;-63
2022/10/03 05:47:45;;;;;;;25.97;22.50;;;12.50;99.90;;;;;;4974803;28;20780;-63
2022/10/03 05:50:35;;;;;;;24.60;20.57;;;12.50;99.90;;;;;;4974740;28;20463;-63
2022/10/03 05:53:16;;;;;;;28.67;22.00;;;12.50;99.90;;;;;;4975024;28;20489;-63
2022/10/03 05:55:59;;;;;;;25.20;22.27;;;12.50;99.90;;;;;;4974894;28;20451;-63
2022/10/03 05:58:53;;;;;;;25.90;21.53;;;12.40;99.90;;;;;;4974904;28;20443;-63
2022/10/03 06:02:06;;;;;;;28.23;23.37;;;12.40;99.90;;;;;;4972582;28;20865;-63
2022/10/03 06:05:12;;;;;;;26.00;22.37;;;12.40;99.90;;;;;;4974841;28;20470;-63
2022/10/03 06:07:57;;;;;;;29.03;22.20;;;12.40;99.90;;;;;;4968541;28;20510;-63
2022/10/03 06:10:49;;;;;;;26.33;20.10;;;12.40;99.90;;;;;;4978685;28;20467;-63
2022/10/03 06:13:29;;;;;;;24.07;20.93;;;12.40;99.90;;;;;;4972165;28;20447;-63
2022/10/03 06:16:05;;;;;;;27.00;20.77;;;12.50;99.90;;;;;;4978621;28;20462;-63
2022/10/03 06:19:09;;;;;;;23.50;19.83;;;12.50;99.90;;;;;;4978420;28;20905;-63
2022/10/03 06:22:10;;;;;;;20.30;17.70;;;12.50;99.90;;;;;;4978432;28;20879;-63
2022/10/03 06:25:17;;;;;;;22.13;19.13;;;12.60;99.90;;;;;;4978573;28;20804;-63
2022/10/03 06:28:25;;;;;;;23.60;19.03;;;12.60;99.90;;;;;;4979293;28;20434;-63
2022/10/03 06:31:21;;;;;;;20.87;18.70;;;12.70;99.90;;;;;;4978355;28;20486;-63
2022/10/03 06:34:09;;;;;;;21.20;18.87;;;12.70;99.90;;;;;;4978143;28;20497;-64
2022/10/03 06:36:49;;;;;;;19.70;17.90;;;12.80;99.90;;;;;;4978173;28;20435;-63
2022/10/03 06:39:53;;;;;;;23.17;19.23;;;12.80;99.90;;;;;;4978140;28;20493;-63
2022/10/03 06:42:45;;;;;;;21.23;18.23;;;12.80;99.90;;;;;;4968213;28;20478;-64
2022/10/03 06:45:55;;;;;;;24.37;19.83;;;12.80;99.90;;;;;;4977983;28;20489;-63
2022/10/03 06:48:50;;;;;;;18.83;17.17;;;12.90;99.90;;;;;;4977605;28;20478;-63
2022/10/03 06:51:45;;;;;;;20.47;18.53;;;12.90;99.90;;;;;;4977904;28;20513;-63
2022/10/03 06:54:41;;;;;;;20.73;18.70;;;13.00;99.90;;;;;;4977436;28;20942;-64
2022/10/03 06:57:33;;;;;;;21.23;18.00;;;13.20;99.90;;;;;;4977809;28;20446;-63
2022/10/03 07:00:14;;;;;;;18.33;16.53;;;13.40;99.90;;;;;;4977650;28;20454;-63
2022/10/03 07:03:17;;;;;;;17.37;15.57;;;13.80;99.90;;;;;;4977699;28;20510;-63
2022/10/03 07:06:10;;;;;;;17.57;14.73;;;14.10;99.90;;;;;;4977673;28;20447;-64
2022/10/03 07:09:01;;;;;;;15.73;14.13;;;14.30;99.90;;;;;;4955167;28;20945;-63
2022/10/03 07:11:43;;;;;;;15.20;13.70;;;14.40;99.90;;;;;;4977781;28;20482;-63
2022/10/03 07:14:51;;;;;;;17.70;15.90;;;14.40;99.90;;;;;;4977398;28;20902;-63
2022/10/03 07:17:51;;;;;;;19.63;14.93;;;14.40;99.90;;;;;;4976335;28;20454;-63
2022/10/03 07:20:49;;;;;;;18.63;16.57;;;14.30;99.90;;;;;;4944985;28;20455;-63
2022/10/03 07:23:55;;;;;;;20.10;17.30;;;14.20;99.90;;;;;;4977217;28;20457;-63
2022/10/03 07:27:02;;;;;;;19.93;17.70;;;14.10;99.90;;;;;;4973782;28;20468;-63
2022/10/03 07:29:56;;;;;;;18.60;15.43;;;14.00;99.90;;;;;;4976955;28;20914;-63
2022/10/03 07:32:56;;;;;;;19.00;14.43;;;14.20;99.90;;;;;;4977323;28;20470;-62
2022/10/03 07:39:08;;;;;;;15.97;13.87;;;14.80;99.90;;;;;;4977317;28;20422;-63
2022/10/03 07:42:03;;;;;;;14.57;12.23;;;15.10;99.90;;;;;;4976542;28;20509;-63
2022/10/03 07:45:11;;;;;;;13.47;12.13;;;15.10;99.90;;;;;;4976872;28;20435;-63
2022/10/03 07:48:05;;;;;;;19.23;12.90;;;15.00;99.90;;;;;;4976831;28;20443;-63
2022/10/03 07:51:07;;;;;;;13.17;11.73;;;14.90;99.90;;;;;;4976709;28;20483;-63
2022/10/03 07:54:05;;;;;;;14.67;12.90;;;14.80;99.90;;;;;;4976218;28;20450;-63
2022/10/03 07:56:52;;;;;;;19.70;12.13;;;14.60;99.90;;;;;;4976723;28;20474;-63
2022/10/03 07:59:52;;;;;;;17.50;11.73;;;14.40;99.90;;;;;;4976766;28;20439;-63
2022/10/03 08:02:45;;;;;;;13.67;11.57;;;14.30;99.90;;;;;;4976258;28;20487;-63
2022/10/03 08:05:36;;;;;;;18.07;12.60;;;14.10;99.90;;;;;;4964069;28;20509;-63
2022/10/03 08:08:42;;;;;;;14.90;11.53;;;14.00;99.90;;;;;;4976595;28;20443;-63
2022/10/03 08:11:33;;;;;;;12.57;11.27;;;14.00;99.90;;;;;;4916616;29;20488;-63
2022/10/03 08:14:10;;;;;;;18.00;14.37;;;14.00;99.90;;;;;;4971311;28;20505;-63
2022/10/03 08:17:01;;;;;;;16.60;13.97;;;14.00;99.90;;;;;;4976400;28;20450;-63
2022/10/03 08:19:45;;;;;;;18.37;13.60;;;14.00;99.90;;;;;;4976252;28;20439;-63
2022/10/03 08:22:20;;;;;;;13.40;12.03;;;14.00;99.90;;;;;;4976091;28;20805;-63
2022/10/03 08:25:11;;;;;;;15.77;11.80;;;14.00;99.90;;;;;;4976245;28;20435;-63
2022/10/03 08:27:51;;;;;;;12.97;10.50;;;13.90;99.90;;;;;;4963879;28;20450;-63
2022/10/03 08:30:24;;;;;;;14.17;12.73;;;13.90;99.90;;;;;;4975857;28;20439;-63
2022/10/03 08:33:15;;;;;;;14.33;11.20;;;13.90;99.90;;;;;;4975906;28;20788;-63
2022/10/03 08:36:12;;;;;;;11.90;10.70;;;14.00;99.90;;;;;;4975934;28;20494;-63
2022/10/03 08:38:55;;;;;;;14.03;9.77;;;14.00;99.90;;;;;;4976011;28;20445;-63
2022/10/03 08:41:48;;;;;;;13.83;9.70;;;13.90;99.90;;;;;;4975833;28;20478;-64
2022/10/03 08:44:57;;;;;;;12.10;10.03;;;14.00;99.90;;;;;;4976034;28;20435;-64
2022/10/03 08:48:19;;;;;;;11.70;9.07;;;14.00;99.90;;;;;;4975697;28;20849;-64
2022/10/03 08:51:10;;;;;;;11.77;10.30;;;14.10;99.90;;;;;;4964963;28;20527;-63
2022/10/03 08:54:06;;;;;;;14.27;11.60;;;14.20;99.90;;;;;;4976412;28;20513;-64
2022/10/03 08:56:53;;;;;;;20.10;11.53;;;14.40;99.90;;;;;;4975616;28;20443;-64
2022/10/03 09:00:07;;;;;;;19.13;12.63;;;14.30;99.90;;;;;;4975623;28;20494;-64
2022/10/03 09:03:04;;;;;;;16.40;11.70;;;14.30;99.90;;;;;;4975465;28;20486;-64
2022/10/03 09:06:00;;;;;;;15.70;12.87;;;14.40;99.90;;;;;;4975236;28;20907;-64
2022/10/03 09:08:49;;;;;;;15.27;10.63;;;14.50;99.90;;;;;;4975112;28;20439;-64
2022/10/03 09:11:48;;;;;;;14.57;9.67;;;14.60;99.90;;;;;;4975202;28;20486;-64
2022/10/03 09:14:53;;;;;;;13.70;10.50;;;14.60;99.90;;;;;;4975190;28;20939;-64
2022/10/03 09:17:49;;;;;;;17.43;10.73;;;14.70;99.90;;;;;;4975400;28;20459;-64
2022/10/03 09:20:47;;;;;;;17.27;10.37;;;14.50;99.90;;;;;;4949415;28;20454;-63
2022/10/03 09:23:49;;;;;;;11.63;9.50;;;14.50;99.90;;;;;;4970147;28;20465;-64
2022/10/03 09:27:00;;;;;;;15.43;9.67;;;14.60;99.90;;;;;;4974943;28;20910;-64
2022/10/03 09:29:53;;;;;;;10.47;7.93;;;14.60;99.90;;;;;;4975215;28;20439;-65
2022/10/03 09:32:52;;;;;;;12.30;8.03;;;14.80;99.90;;;;;;4975148;28;20513;-64
2022/10/03 09:35:55;;;;;;;11.97;7.33;;;14.90;99.90;;;;;;4975187;28;20490;-64
2022/10/03 09:38:51;;;;;;;11.10;8.23;;;15.10;99.90;;;;;;4960006;28;20450;-64
2022/10/03 09:42:09;;;;;;;11.80;8.03;;;15.20;99.90;;;;;;4974103;28;20869;-64
2022/10/03 09:44:48;;;;;;;11.80;7.50;;;15.20;99.90;;;;;;4974951;28;20443;-66
2022/10/03 09:47:51;;;;;;;13.50;7.60;;;15.20;99.90;;;;;;4975110;28;20438;-64
2022/10/03 09:50:54;;;;;;;11.10;7.10;;;15.20;99.90;;;;;;4974910;28;20489;-64
2022/10/03 09:54:02;;;;;;;14.27;8.60;;;15.20;99.90;;;;;;4954307;28;20450;-65
2022/10/03 09:57:08;;;;;;;13.67;7.40;;;15.30;99.90;;;;;;4965153;28;20465;-64
2022/10/03 10:00:14;;;;;;;12.90;7.30;;;15.30;99.90;;;;;;4975349;28;20877;-65
2022/10/03 10:03:06;;;;;;;10.17;7.00;;;15.40;99.90;;;;;;4975440;28;20431;-64
2022/10/03 10:06:18;;;;;;;9.53;7.67;;;15.50;99.90;;;;;;4974745;28;20910;-65
2022/10/03 10:09:15;;;;;;;9.77;6.50;;;15.70;99.90;;;;;;4974847;28;20439;-64
2022/10/03 10:12:26;;;;;;;11.47;7.30;;;16.70;99.90;;;;;;4974712;28;20482;-64
2022/10/03 10:15:18;;;;;;;9.53;5.97;;;18.50;99.90;;;;;;4974829;28;20438;-64
2022/10/03 10:18:28;;;;;;;12.40;6.30;;;19.40;99.90;;;;;;4974931;28;20462;-64
2022/10/03 10:21:32;;;;;;;8.93;7.27;;;19.40;99.90;;;;;;4974283;28;20863;-64
2022/10/03 10:24:30;;;;;;;11.77;8.10;;;19.10;99.90;;;;;;4974704;28;20443;-64
2022/10/03 10:27:33;;;;;;;17.27;10.00;;;18.70;99.90;;;;;;4937610;28;20460;-64
2022/10/03 10:30:21;;;;;;;15.20;7.70;;;18.10;99.90;;;;;;4975580;28;20442;-64
2022/10/03 10:33:23;;;;;;;9.13;7.80;;;17.70;99.90;;;;;;4974531;28;20463;-62
2022/10/03 10:36:32;;;;;;;9.43;7.00;;;17.70;99.90;;;;;;4974537;28;20941;-64
2022/10/03 10:39:32;;;;;;;8.40;6.70;;;17.70;99.90;;;;;;4951020;28;20490;-64
2022/10/03 10:42:47;;;;;;;11.80;8.00;;;17.40;99.90;;;;;;4972411;28;20470;-63
2022/10/03 10:45:44;;;;;;;11.40;7.77;;;17.10;99.90;;;;;;4974967;28;20513;-63
2022/10/03 10:49:11;;;;;;;9.20;6.97;;;16.90;99.90;;;;;;4974626;28;20491;-63
2022/10/03 10:52:10;;;;;;;8.67;6.37;;;16.90;99.90;;;;;;4974163;28;20486;-63
2022/10/03 10:55:21;;;;;;;9.43;6.53;;;16.80;99.90;;;;;;4977882;28;20447;-63
2022/10/03 10:58:31;;;;;;;9.40;6.10;;;16.80;99.90;;;;;;4977874;28;20533;-63
2022/10/03 11:01:26;;;;;;;9.27;5.90;;;16.90;99.90;;;;;;4977397;28;21028;-63
2022/10/03 11:04:31;;;;;;;7.30;5.70;;;17.30;99.90;;;;;;4977839;28;20438;-63
2022/10/03 11:07:30;;;;;;;8.87;5.57;;;17.40;99.90;;;;;;4977511;28;20454;-63
2022/10/03 11:10:27;;;;;;;7.63;6.20;;;17.60;99.90;;;;;;4977622;28;20549;-63
2022/10/03 11:13:40;;;;;;;7.23;5.43;;;18.10;99.90;;;;;;4977435;28;20483;-63
2022/10/03 11:16:52;;;;;;;7.97;5.03;;;18.40;99.90;;;;;;4959076;28;20478;-63
2022/10/03 11:19:52;;;;;;;6.27;5.07;;;18.30;99.90;;;;;;4977287;28;20454;-63
2022/10/03 11:23:07;;;;;;;5.60;5.10;;;18.60;99.90;;;;;;4975064;28;20471;-63
2022/10/03 11:26:17;;;;;;;8.00;4.80;;;19.00;99.90;;;;;;4977117;28;20439;-63
2022/10/03 11:29:19;;;;;;;7.70;4.40;;;19.40;99.90;;;;;;4977185;28;20862;-63
2022/10/03 11:32:18;;;;;;;7.83;4.07;;;19.70;99.90;;;;;;4976929;28;20478;-63
2022/10/03 11:35:25;;;;;;;6.40;4.27;;;19.80;99.90;;;;;;4974987;28;20455;-63
2022/10/03 11:37:57;;;;;;;10.50;4.00;;;19.50;99.90;;;;;;4960219;28;20450;-63
2022/10/03 11:40:37;;;;;;;10.97;4.57;;;19.30;99.90;;;;;;4977939;28;20490;-63
2022/10/03 11:43:56;;;;;;;8.27;3.83;;;19.00;99.90;;;;;;4977601;28;20485;-63
2022/10/03 11:46:43;;;;;;;6.20;3.20;;;18.50;99.90;;;;;;4960536;28;20455;-63
2022/10/03 11:49:29;;;;;;;6.23;4.07;;;18.60;99.90;;;;;;4976929;28;20847;-63
2022/10/03 11:52:07;;;;;;;6.33;4.00;;;18.50;99.90;;;;;;4976573;28;20486;-63
2022/10/03 11:54:39;;;;;;;7.77;4.17;;;18.50;99.90;;;;;;4976729;28;20447;-64
2022/10/03 11:57:12;;;;;;;5.60;3.93;;;18.50;99.90;;;;;;4976667;28;20439;-63
2022/10/03 11:59:59;;;;;;;8.47;4.60;;;18.40;99.90;;;;;;4976735;28;20486;-63
2022/10/03 12:02:55;;;;;;;8.67;4.77;;;18.10;99.90;;;;;;4976497;28;20513;-63
2022/10/03 12:05:34;;;;;;;6.53;4.07;;;17.80;99.90;;;;;;4956978;28;20462;-63
2022/10/03 12:11:12;;;;;;;10.40;4.20;;;17.70;99.90;;;;;;4976421;28;20501;-63
2022/10/03 12:13:47;;;;;;;7.70;3.87;;;17.50;99.90;;;;;;4976312;28;20457;-63
2022/10/03 12:16:22;;;;;;;6.27;4.17;;;17.60;99.90;;;;;;4976427;28;20446;-63
2022/10/03 12:18:57;;;;;;;7.10;4.07;;;17.40;99.90;;;;;;4976260;28;20906;-63
2022/10/03 12:21:36;;;;;;;6.40;3.80;;;17.10;99.90;;;;;;4976382;28;20536;-63
2022/10/03 12:24:22;;;;;;;5.70;3.70;;;16.90;99.90;;;;;;4976551;28;20443;-63
2022/10/03 12:26:57;;;;;;;8.47;4.33;;;16.90;99.90;;;;;;4976443;28;20494;-63
2022/10/03 12:29:28;;;;;;;6.90;3.13;;;16.80;99.90;;;;;;4976289;28;20539;-63
2022/10/03 12:32:20;;;;;;;7.97;3.57;;;16.80;99.90;;;;;;4976154;28;20493;-63
2022/10/03 12:34:57;;;;;;;5.27;3.63;;;16.70;99.90;;;;;;4976122;28;20443;-63
2022/10/03 12:37:35;;;;;;;5.47;3.50;;;16.70;99.90;;;;;;4976036;28;20438;-63
2022/10/03 12:40:05;;;;;;;6.10;3.20;;;16.80;99.90;;;;;;4976160;28;20474;-63
2022/10/03 12:42:39;;;;;;;4.73;3.10;;;16.70;99.90;;;;;;4975926;28;20521;-63
2022/10/03 12:45:16;;;;;;;5.10;3.10;;;16.70;99.90;;;;;;4976146;28;20470;-63
2022/10/03 12:48:06;;;;;;;6.37;3.30;;;16.70;99.90;;;;;;4977831;28;20442;-63
2022/10/03 12:50:45;;;;;;;7.10;3.63;;;16.80;99.90;;;;;;4984037;28;20929;-63
2022/10/03 12:53:37;;;;;;;4.53;2.50;;;16.80;99.90;;;;;;4982869;28;20466;-63
2022/10/03 12:56:17;;;;;;;5.73;3.30;;;17.10;99.90;;;;;;4984151;28;20781;-63
2022/10/03 12:59:06;;;;;;;8.13;3.13;;;17.20;99.90;;;;;;4983098;28;20438;-63
2022/10/03 13:04:55;;;;;;;6.10;3.40;;;17.50;99.90;;;;;;4981618;28;20447;-63
2022/10/03 13:07:28;;;;;;;8.70;3.67;;;17.70;99.90;;;;;;4982657;28;20541;-63
2022/10/03 13:10:13;;;;;;;5.80;3.33;;;18.00;99.90;;;;;;4982830;28;20461;-63
2022/10/03 13:12:48;;;;;;;3.77;3.47;;;18.20;99.90;;;;;;4981533;28;20463;-63
2022/10/03 13:16:12;;;;;;;5.03;3.37;;;18.30;99.90;;;;;;4982270;28;20434;-63
2022/10/03 13:19:00;;;;;;;9.03;3.77;;;18.50;99.90;;;;;;4941157;29;20959;-63
2022/10/03 13:21:44;;;;;;;7.57;3.23;;;18.50;99.90;;;;;;4973690;28;20599;-63
2022/10/03 13:24:21;;;;;;;4.63;2.87;;;18.60;99.90;;;;;;4975142;28;20973;-63
2022/10/03 13:27:00;;;;;;;3.63;3.17;;;18.80;99.90;;;;;;4975941;28;20471;-63
2022/10/03 13:29:32;;;;;;;7.07;3.33;;;18.80;99.90;;;;;;4975348;28;20492;-63
2022/10/03 13:32:20;;;;;;;3.17;2.87;;;18.70;99.90;;;;;;4975005;28;20529;-63
2022/10/03 13:38:38;;;;;;;6.90;2.90;;;18.30;99.90;;;;;;4976457;28;20430;-62
2022/10/03 13:41:15;;;;;;;9.90;3.10;;;18.50;99.90;;;;;;4976306;28;20474;-62
2022/10/03 13:43:48;;;;;;;8.40;3.53;;;18.70;99.90;;;;;;4977386;28;20511;-62
2022/10/03 13:46:21;;;;;;;5.60;2.70;;;18.90;99.90;;;;;;4977287;28;20443;-62
2022/10/03 13:48:55;;;;;;;2.60;2.40;;;18.90;99.90;;;;;;4978092;28;20451;-62
2022/10/03 13:51:31;;;;;;;4.13;2.67;;;19.00;99.90;;;;;;4978171;28;20473;-62
2022/10/03 13:54:02;;;;;;;3.47;3.17;;;18.90;99.90;;;;;;4978044;28;20426;-62
2022/10/03 13:56:42;;;;;;;4.00;2.33;;;19.00;99.90;;;;;;4978273;28;20980;-62
2022/10/03 13:59:31;;;;;;;4.40;2.70;;;19.10;99.90;;;;;;4976129;28;20439;-62
2022/10/03 14:02:07;;;;;;;4.10;3.17;;;19.00;99.90;;;;;;4974728;28;20485;-62
2022/10/03 14:04:54;;;;;;;3.00;2.47;;;18.90;99.90;;;;;;4974947;28;20481;-62
2022/10/03 14:07:33;;;;;;;3.50;2.20;;;18.50;99.90;;;;;;4974794;28;20435;-62
2022/10/03 14:10:15;;;;;;;5.87;2.50;;;18.50;99.90;;;;;;4974721;28;20499;-62
2022/10/03 14:12:57;;;;;;;3.70;2.63;;;18.50;99.90;;;;;;4974587;28;20470;-62
2022/10/03 14:15:33;;;;;;;3.30;3.00;;;18.50;99.90;;;;;;4974677;28;20534;-62
2022/10/03 14:18:10;;;;;;;3.17;2.60;;;18.60;99.90;;;;;;4974592;28;20489;-62
2022/10/03 14:21:01;;;;;;;4.17;2.60;;;18.50;99.90;;;;;;4974724;28;20478;-62
2022/10/03 14:23:35;;;;;;;3.70;2.80;;;18.40;99.90;;;;;;4974192;28;20446;-62
2022/10/03 14:26:10;;;;;;;5.17;3.10;;;18.50;99.90;;;;;;4975016;28;20490;-62
2022/10/03 14:28:44;;;;;;;8.10;3.40;;;18.60;99.90;;;;;;4979188;28;20442;-62
2022/10/03 14:31:23;;;;;;;5.50;2.73;;;18.60;99.90;;;;;;4978233;28;20851;-62
2022/10/03 14:33:59;;;;;;;5.17;2.63;;;18.70;99.90;;;;;;4978922;28;20470;-62
2022/10/03 14:36:36;;;;;;;5.60;2.70;;;18.70;99.90;;;;;;4978073;28;20443;-62
2022/10/03 14:39:28;;;;;;;4.40;2.80;;;18.60;99.90;;;;;;4978016;28;20442;-62
2022/10/03 14:42:26;;;;;;;2.70;2.47;;;18.70;99.90;;;;;;4977858;28;20474;-62
2022/10/03 14:44:56;;;;;;;4.30;3.50;;;18.90;99.90;;;;;;4976342;28;20506;-62
2022/10/03 14:47:25;;;;;;;2.97;2.70;;;18.90;99.90;;;;;;4977773;28;20479;-62
2022/10/03 14:49:55;;;;;;;6.77;2.87;;;19.10;99.90;;;;;;4977816;28;20506;-62
2022/10/03 14:52:29;;;;;;;4.47;2.80;;;19.30;99.90;;;;;;4977550;28;20509;-62
2022/10/03 14:54:57;;;;;;;4.80;2.50;;;19.20;99.90;;;;;;4977642;28;20439;-62
2022/10/03 14:57:32;;;;;;;5.00;2.60;;;19.40;99.90;;;;;;4977744;28;20462;-62
2022/10/03 14:59:59;;;;;;;5.40;3.00;;;19.50;99.90;;;;;;4977680;28;20445;-62
2022/10/03 15:02:30;;;;;;;5.30;3.10;;;19.60;99.90;;;;;;4977414;28;20482;-62
2022/10/03 15:05:06;;;;;;;4.10;2.90;;;19.50;99.90;;;;;;4977555;28;20466;-62
2022/10/03 15:07:37;;;;;;;3.87;2.67;;;19.50;99.90;;;;;;4977700;28;20443;-62
2022/10/03 15:10:09;;;;;;;5.53;2.70;;;19.40;99.90;;;;;;4977738;28;20449;-63
2022/10/03 15:12:38;;;;;;;6.80;3.03;;;19.40;99.90;;;;;;4977323;28;20486;-62
2022/10/03 15:15:10;;;;;;;4.43;3.10;;;19.40;99.90;;;;;;4977437;28;20454;-62
2022/10/03 15:17:45;;;;;;;3.33;2.33;;;19.30;99.90;;;;;;4977542;28;20461;-62
2022/10/03 15:20:12;;;;;;;6.77;3.50;;;19.30;99.90;;;;;;4977351;28;20493;-62
2022/10/03 15:22:41;;;;;;;4.23;3.03;;;19.10;99.90;;;;;;4977165;28;20526;-62
2022/10/03 15:25:13;;;;;;;3.47;2.57;;;19.10;99.90;;;;;;4977220;28;20454;-62
2022/10/03 15:27:42;;;;;;;6.47;2.87;;;18.90;99.90;;;;;;4977191;28;20534;-62
2022/10/03 15:30:21;;;;;;;8.20;3.70;;;18.70;99.90;;;;;;4978684;28;20455;-62
2022/10/03 15:32:50;;;;;;;6.77;3.30;;;18.50;99.90;;;;;;4978956;28;20517;-62
2022/10/03 15:35:20;;;;;;;5.50;3.23;;;18.20;99.90;;;;;;4977966;28;20430;-62
2022/10/03 15:37:47;;;;;;;2.83;2.50;;;18.10;99.90;;;;;;4976419;28;20549;-62
2022/10/03 15:40:23;;;;;;;4.63;3.20;;;18.10;99.90;;;;;;4977747;28;20467;-62
2022/10/03 15:43:01;;;;;;;4.53;2.63;;;18.10;99.90;;;;;;4977218;28;20442;-62
2022/10/03 15:45:32;;;;;;;11.80;3.23;;;18.00;99.90;;;;;;4976902;28;20438;-63
2022/10/03 15:48:04;;;;;;;6.37;3.37;;;18.00;99.90;;;;;;4976971;28;20447;-62
2022/10/03 15:50:34;;;;;;;3.23;2.40;;;17.80;99.90;;;;;;4976202;28;20795;-62
2022/10/03 15:53:07;;;;;;;5.20;3.50;;;17.70;99.90;;;;;;4976723;28;20574;-62
2022/10/03 15:55:41;;;;;;;4.00;3.50;;;17.70;99.90;;;;;;4976755;28;20534;-62
2022/10/03 15:58:15;;;;;;;6.97;3.53;;;17.70;99.90;;;;;;4976135;28;20872;-62
2022/10/03 16:00:53;;;;;;;4.77;2.90;;;17.50;99.90;;;;;;4975916;28;20573;-62
2022/10/03 16:03:28;;;;;;;6.60;2.80;;;17.40;99.90;;;;;;4976419;28;20506;-62
2022/10/03 16:06:03;;;;;;;4.67;3.10;;;17.30;99.90;;;;;;4976319;28;20477;-62
2022/10/03 16:08:32;;;;;;;8.00;3.00;;;17.20;99.90;;;;;;4976192;28;20443;-62
2022/10/03 16:11:08;;;;;;;6.43;3.30;;;17.10;99.90;;;;;;4976443;28;20807;-62
2022/10/03 16:13:37;;;;;;;6.20;3.60;;;17.10;99.90;;;;;;4976109;28;20564;-62
2022/10/03 16:16:16;;;;;;;7.17;2.70;;;17.00;99.90;;;;;;4976216;28;20486;-62
2022/10/03 16:19:01;;;;;;;5.10;3.53;;;17.00;99.90;;;;;;4976098;28;20439;-62
2022/10/03 16:21:43;;;;;;;3.60;2.80;;;16.90;99.90;;;;;;4975638;28;20893;-62
2022/10/03 16:24:22;;;;;;;5.80;4.33;;;16.80;99.90;;;;;;4975910;28;20443;-62
2022/10/03 16:26:53;;;;;;;4.80;2.93;;;16.70;99.90;;;;;;4976532;28;20494;-62
2022/10/03 16:29:24;;;;;;;6.83;3.30;;;16.60;99.90;;;;;;4975918;28;20461;-62
2022/10/03 16:31:55;;;;;;;5.07;2.93;;;16.50;99.90;;;;;;4975771;28;20487;-62
2022/10/03 16:34:26;;;;;;;3.90;3.00;;;16.50;99.90;;;;;;4975755;28;20467;-62
2022/10/03 16:36:53;;;;;;;5.03;3.17;;;16.40;99.90;;;;;;4975527;28;20842;-62
2022/10/03 16:39:24;;;;;;;5.10;3.33;;;16.30;99.90;;;;;;4975713;28;20450;-62
2022/10/03 16:41:54;;;;;;;7.60;3.80;;;16.20;99.90;;;;;;4975421;28;20479;-62
2022/10/03 16:44:24;;;;;;;8.30;4.77;;;16.10;99.90;;;;;;4975607;28;20479;-62
2022/10/03 16:46:54;;;;;;;6.83;3.90;;;16.00;99.90;;;;;;4975670;28;20533;-62
2022/10/03 16:52:24;;;;;;;6.07;4.90;;;15.80;99.90;;;;;;4975341;28;20473;-62
2022/10/03 16:55:00;;;;;;;5.53;4.00;;;15.70;99.90;;;;;;4975307;28;20517;-62
2022/10/03 16:57:36;;;;;;;4.30;3.67;;;15.60;99.90;;;;;;4975356;28;20923;-62
2022/10/03 17:00:06;;;;;;;5.33;4.43;;;15.50;99.90;;;;;;4975443;28;20530;-61
2022/10/03 17:02:37;;;;;;;9.30;6.23;;;15.30;99.90;;;;;;4974785;28;20483;-62
2022/10/03 17:05:07;;;;;;;6.07;5.57;;;15.20;99.90;;;;;;4974747;28;20509;-63
2022/10/03 17:07:39;;;;;;;7.10;5.27;;;15.00;99.90;;;;;;4974834;28;20443;-63
2022/10/03 17:10:23;;;;;;;5.53;4.97;;;14.90;99.90;;;;;;4974672;28;20443;-62
2022/10/03 17:12:52;;;;;;;5.60;4.47;;;14.80;99.90;;;;;;4974983;28;20493;-63
2022/10/03 17:15:22;;;;;;;5.70;5.20;;;14.60;99.90;;;;;;4974734;28;20461;-62
2022/10/03 17:17:54;;;;;;;8.50;5.30;;;14.50;99.90;;;;;;4974680;28;20529;-62
2022/10/03 17:20:34;;;;;;;8.37;5.30;;;14.30;99.90;;;;;;4974241;28;20906;-61
2022/10/03 17:23:05;;;;;;;6.97;5.33;;;14.30;99.90;;;;;;4974634;28;20434;-62
2022/10/03 17:25:42;;;;;;;6.37;5.77;;;14.20;99.90;;;;;;4974436;28;20537;-62
2022/10/03 17:28:15;;;;;;;6.00;5.27;;;14.10;99.90;;;;;;4975277;28;20754;-62
2022/10/03 17:30:46;;;;;;;8.33;5.90;;;14.00;99.90;;;;;;4974453;28;20475;-62
2022/10/03 17:33:20;;;;;;;7.00;5.70;;;14.00;99.90;;;;;;4974322;28;20467;-62
2022/10/03 17:35:59;;;;;;;9.03;5.73;;;13.90;99.90;;;;;;4975193;28;20443;-63
2022/10/03 17:38:36;;;;;;;7.30;5.30;;;13.80;99.90;;;;;;4974466;28;20538;-62
2022/10/03 17:41:16;;;;;;;6.60;5.50;;;13.70;99.90;;;;;;4974207;28;20478;-62
2022/10/03 17:43:47;;;;;;;5.63;5.10;;;13.70;99.90;;;;;;4974154;28;20442;-62
2022/10/03 17:46:21;;;;;;;12.00;6.10;;;13.60;99.90;;;;;;4974235;28;20497;-62
2022/10/03 17:48:55;;;;;;;7.83;6.50;;;13.50;99.90;;;;;;4974302;28;20502;-62
2022/10/03 17:51:35;;;;;;;9.23;7.30;;;13.50;99.90;;;;;;4974060;28;20528;-63
2022/10/03 17:54:05;;;;;;;10.30;7.23;;;13.40;99.90;;;;;;4974120;28;20490;-62
2022/10/03 17:56:34;;;;;;;10.40;8.00;;;13.30;99.90;;;;;;4974036;28;20842;-62
2022/10/03 17:59:06;;;;;;;9.93;7.73;;;13.20;99.90;;;;;;4973997;28;20451;-62
2022/10/03 18:01:38;;;;;;;13.37;8.80;;;13.20;99.90;;;;;;4940016;28;1034603;-62
2022/10/03 18:04:11;;;;;;;14.00;9.20;;;13.10;99.90;;;;;;4978633;28;20179;-62
2022/10/03 18:06:47;;;;;;;11.43;10.00;;;13.10;99.90;;;;;;4978762;28;20443;-62
2022/10/03 18:09:28;;;;;;;11.97;9.37;;;13.00;99.90;;;;;;4978715;28;20438;-63
2022/10/03 18:12:03;;;;;;;11.80;9.43;;;13.00;99.90;;;;;;4978906;28;20478;-62
2022/10/03 18:14:40;;;;;;;12.37;9.67;;;12.90;99.90;;;;;;4978552;28;20462;-62
2022/10/03 18:17:16;;;;;;;10.43;7.87;;;12.90;99.90;;;;;;4978484;28;20817;-62
2022/10/03 18:19:55;;;;;;;10.83;7.53;;;12.90;99.90;;;;;;4978403;28;20446;-62
2022/10/03 18:22:28;;;;;;;11.00;8.60;;;12.90;99.90;;;;;;4979084;28;20491;-62
2022/10/03 18:24:58;;;;;;;8.20;7.50;;;12.80;99.90;;;;;;4978169;28;20438;-62
2022/10/03 18:27:43;;;;;;;9.50;8.03;;;12.80;99.90;;;;;;4978343;28;20462;-62
2022/10/03 18:30:16;;;;;;;10.50;7.53;;;12.80;99.90;;;;;;4978203;28;20443;-62